Time;durP1;ratioP1;P1;durP2;ratioP2;P2;SDS_P1;SDS_P2;PMS_P1;PMS_P2;Temp;Humidity;BMP_temperature;BMP_pressure;BME280_temperature;BME280_humidity;BME280_pressure;Samples;Min_cycle;Max_cycle;Signal;HPM_P1;HPM_P2
2022/01/19 00:00:09;;;;;;;;;;;7.40;99.90;;;;;;4955413;29;20282;-79
2022/01/19 00:02:34;;;;;;;;;;;7.20;99.90;;;;;;4957014;29;19910;-79
2022/01/19 00:05:00;;;;;;;;;;;7.20;99.90;;;;;;4956807;29;19945;-79
2022/01/19 00:07:26;;;;;;;;;;;7.10;99.90;;;;;;4956621;29;19961;-79
2022/01/19 00:09:51;;;;;;;;;;;7.00;99.90;;;;;;4956522;29;19961;-79
2022/01/19 00:12:17;;;;;;;;;;;7.10;99.90;;;;;;4956629;29;19945;-79
2022/01/19 00:14:42;;;;;;;;;;;7.30;99.90;;;;;;4956662;29;19914;-79
2022/01/19 00:17:08;;;;;;;;;;;7.20;99.90;;;;;;4955106;29;20375;-78
2022/01/19 00:19:33;;;;;;;;;;;7.20;99.90;;;;;;4956463;29;19922;-79
2022/01/19 00:21:59;;;;;;;;;;;7.10;99.90;;;;;;4956309;29;19980;-79
2022/01/19 00:24:24;;;;;;;;;;;6.90;99.90;;;;;;4954949;29;19918;-79
2022/01/19 00:26:50;;;;;;;;;;;7.00;99.90;;;;;;4956342;29;19910;-79
2022/01/19 00:29:15;;;;;;;;;;;7.10;99.90;;;;;;4956262;29;20402;-79
2022/01/19 00:31:41;;;;;;;;;;;7.10;99.90;;;;;;4970872;28;19911;-79
2022/01/19 00:34:07;;;;;;;;;;;7.20;99.90;;;;;;4955966;29;19914;-79
2022/01/19 00:36:32;;;;;;;;;;;7.10;99.90;;;;;;4956341;29;19911;-79
2022/01/19 00:38:58;;;;;;;;;;;7.00;99.90;;;;;;4956180;29;19917;-79
2022/01/19 00:41:24;;;;;;;;;;;7.00;99.90;;;;;;4955963;29;20389;-79
2022/01/19 00:43:49;;;;;;;;;;;7.00;99.90;;;;;;4955881;29;19933;-79
2022/01/19 00:46:15;;;;;;;;;;;7.00;99.90;;;;;;4954581;29;19925;-79
2022/01/19 00:48:41;;;;;;;;;;;7.00;99.90;;;;;;4955564;28;19910;-79
2022/01/19 00:51:07;;;;;;;;;;;7.20;99.90;;;;;;4955967;29;19910;-79
2022/01/19 00:53:33;;;;;;;;;;;7.30;99.90;;;;;;4955669;28;20279;-79
2022/01/19 00:55:58;;;;;;;;;;;7.20;99.90;;;;;;4955613;29;19923;-79
2022/01/19 00:58:24;;;;;;;;;;;7.10;99.90;;;;;;4954475;29;20424;-79
2022/01/19 01:00:50;;;;;;;;;;;7.10;99.90;;;;;;4955944;29;19911;-79
2022/01/19 01:03:16;;;;;;;;;;;7.10;99.90;;;;;;4955916;29;20256;-79
2022/01/19 01:05:42;;;;;;;;;;;7.20;99.90;;;;;;4955827;29;19917;-79
2022/01/19 01:08:08;;;;;;;;;;;7.30;99.90;;;;;;4955597;29;19918;-78
2022/01/19 01:10:41;;;;;;;;;;;7.40;99.90;;;;;;4955601;29;20287;-79
2022/01/19 01:13:21;;;;;;;;;;;7.40;99.90;;;;;;4953972;29;19958;-79
2022/01/19 01:15:49;;;;;;;;;;;7.40;99.90;;;;;;4955606;29;20375;-79
2022/01/19 01:18:20;;;;;;;;;;;7.20;99.90;;;;;;4955454;29;19917;-78
2022/01/19 01:20:47;;;;;;;;;;;7.30;99.90;;;;;;4955859;29;20379;-78
2022/01/19 01:23:12;;;;;;;;;;;7.40;99.90;;;;;;4954179;29;19910;-79
2022/01/19 01:25:39;;;;;;;;;;;7.50;99.90;;;;;;4955407;29;20013;-79
2022/01/19 01:28:05;;;;;;;;;;;7.60;99.90;;;;;;4955444;29;19915;-79
2022/01/19 01:30:30;;;;;;;;;;;7.60;99.90;;;;;;4955752;29;19910;-79
2022/01/19 01:32:56;;;;;;;;;;;7.60;99.90;;;;;;4955588;29;20367;-79
2022/01/19 01:35:22;;;;;;;;;;;7.50;99.90;;;;;;4955353;29;19914;-79
2022/01/19 01:37:48;;;;;;;;;;;7.40;99.90;;;;;;4955329;29;19973;-79
2022/01/19 01:40:13;;;;;;;;;;;7.40;99.90;;;;;;4955683;29;20001;-79
2022/01/19 01:42:40;;;;;;;;;;;7.30;99.90;;;;;;4955435;29;19910;-79
2022/01/19 01:45:10;;;;;;;;;;;7.20;99.90;;;;;;4955286;29;19911;-79
2022/01/19 01:47:41;;;;;;;;;;;7.20;99.90;;;;;;4955280;29;19910;-79
2022/01/19 01:55:19;;;;;;;;;;;7.10;99.90;;;;;;4955024;28;19929;-79
2022/01/19 01:57:45;;;;;;;;;;;7.30;99.90;;;;;;4955241;29;20359;-79
2022/01/19 02:00:12;;;;;;;;;;;7.30;99.90;;;;;;4955357;28;19949;-80
2022/01/19 02:02:39;;;;;;;;;;;7.40;99.90;;;;;;4958927;29;19911;-79
2022/01/19 02:05:09;;;;;;;;;;;7.30;99.90;;;;;;4958788;29;19911;-79
2022/01/19 02:07:58;;;;;;;;;;;7.10;99.90;;;;;;4958681;29;20339;-79
2022/01/19 02:21:45;;;;;;;;;;;7.50;99.90;;;;;;4958650;29;19921;-79
2022/01/19 02:24:16;;;;;;;;;;;7.40;99.90;;;;;;4941037;29;19965;-79
2022/01/19 02:26:54;;;;;;;;;;;7.40;99.90;;;;;;4958973;29;20267;-79
2022/01/19 02:42:54;;;;;;;;;;;7.30;99.90;;;;;;4958345;29;20390;-78
2022/01/19 02:50:33;;;;;;;;;;;7.20;99.90;;;;;;4957772;29;20295;-79
2022/01/19 02:52:58;;;;;;;;;;;7.30;99.90;;;;;;4957759;28;20371;-79
2022/01/19 02:55:24;;;;;;;;;;;7.40;99.90;;;;;;4957840;29;19932;-78
2022/01/19 02:57:50;;;;;;;;;;;7.40;99.90;;;;;;4957885;29;19917;-79
2022/01/19 03:08:46;;;;;;;;;;;6.80;99.90;;;;;;4905638;29;19911;-79
2022/01/19 03:11:14;;;;;;;;;;;7.00;99.90;;;;;;4957303;28;19902;-79
2022/01/19 03:13:39;;;;;;;;;;;7.00;99.90;;;;;;4957549;29;19920;-79
2022/01/19 03:16:05;;;;;;;;;;;6.90;99.90;;;;;;4957565;29;19915;-79
2022/01/19 03:18:30;;;;;;;;;;;6.80;99.90;;;;;;4957880;29;19918;-79
2022/01/19 03:20:56;;;;;;;;;;;6.80;99.90;;;;;;4957422;29;19985;-78
2022/01/19 03:23:22;;;;;;;;;;;6.70;99.90;;;;;;4957636;29;19911;-79
2022/01/19 03:25:48;;;;;;;;;;;6.70;99.90;;;;;;4957295;29;19910;-80
2022/01/19 03:28:14;;;;;;;;;;;6.90;99.90;;;;;;4957339;29;19914;-79
2022/01/19 03:30:40;;;;;;;;;;;7.00;99.90;;;;;;4957535;29;20375;-79
2022/01/19 03:33:06;;;;;;;;;;;6.90;99.90;;;;;;4957082;29;19921;-79
2022/01/19 03:35:32;;;;;;;;;;;6.80;99.90;;;;;;4939926;29;19914;-79
2022/01/19 03:37:58;;;;;;;;;;;6.80;99.90;;;;;;4957123;29;20287;-78
2022/01/19 03:40:23;;;;;;;;;;;7.00;99.90;;;;;;4956976;29;19910;-79
2022/01/19 03:42:49;;;;;;;;;;;7.20;99.90;;;;;;4956994;29;19950;-79
2022/01/19 03:45:15;;;;;;;;;;;7.20;99.90;;;;;;4956982;29;20306;-79
2022/01/19 03:47:45;;;;;;;;;;;7.30;99.90;;;;;;4956947;29;19910;-78
2022/01/19 03:50:11;;;;;;;;;;;7.40;99.90;;;;;;4957086;29;19910;-79
2022/01/19 03:52:37;;;;;;;;;;;7.40;99.90;;;;;;4955395;28;20389;-79
2022/01/19 03:55:03;;;;;;;;;;;7.40;99.90;;;;;;4947495;29;19953;-79
2022/01/19 03:57:29;;;;;;;;;;;7.30;99.90;;;;;;4955463;29;19910;-79
2022/01/19 03:59:54;;;;;;;;;;;7.30;99.90;;;;;;4955476;29;19922;-79
2022/01/19 04:02:20;;;;;;;;;;;7.00;99.90;;;;;;4956742;29;19911;-79
2022/01/19 04:05:04;;;;;;;;;;;6.70;99.90;;;;;;4956751;29;20387;-79
2022/01/19 04:07:30;;;;;;;;;;;6.80;99.90;;;;;;4955106;29;19910;-79
2022/01/19 04:09:55;;;;;;;;;;;6.80;99.90;;;;;;4956747;29;20385;-80
2022/01/19 04:12:41;;;;;;;;;;;6.70;99.90;;;;;;4956522;29;19911;-80
2022/01/19 04:15:07;;;;;;;;;;;6.50;99.90;;;;;;4956308;29;19915;-79
2022/01/19 04:17:33;;;;;;;;;;;6.50;99.90;;;;;;4956581;29;19911;-80
2022/01/19 04:19:59;;;;;;;;;;;6.30;99.90;;;;;;4955050;29;19910;-79
2022/01/19 04:22:24;;;;;;;;;;;6.50;99.90;;;;;;4954966;28;20390;-79
2022/01/19 04:24:50;;;;;;;;;;;6.80;99.90;;;;;;4954444;29;19910;-79
2022/01/19 04:29:48;;;;;;;;;;;6.70;99.90;;;;;;4956146;29;19911;-79
2022/01/19 04:32:18;;;;;;;;;;;6.50;99.90;;;;;;4956248;29;19965;-79
2022/01/19 04:34:48;;;;;;;;;;;6.60;99.90;;;;;;4956225;29;19973;-78
2022/01/19 05:06:41;;;;;;;;;;;6.70;99.90;;;;;;4955637;29;20295;-78
2022/01/19 05:09:38;;;;;;;;;;;6.70;99.90;;;;;;4955880;29;20418;-79
2022/01/19 05:14:48;;;;;;;;;;;6.70;99.90;;;;;;4955321;29;19922;-78
2022/01/19 05:17:14;;;;;;;;;;;6.80;99.90;;;;;;4955601;29;19914;-79
2022/01/19 05:19:39;;;;;;;;;;;6.80;99.90;;;;;;4955511;29;20001;-79
2022/01/19 05:22:05;;;;;;;;;;;6.70;99.90;;;;;;4955923;29;20376;-79
2022/01/19 05:24:30;;;;;;;;;;;6.80;99.90;;;;;;4955440;29;19914;-79
2022/01/19 05:26:56;;;;;;;;;;;6.80;99.90;;;;;;4955470;29;19997;-78
2022/01/19 05:29:22;;;;;;;;;;;6.60;99.90;;;;;;4955404;29;19911;-79
2022/01/19 05:31:47;;;;;;;;;;;6.80;99.90;;;;;;4955470;29;19910;-78
2022/01/19 05:34:13;;;;;;;;;;;6.60;99.90;;;;;;4955621;28;20005;-79
2022/01/19 05:36:38;;;;;;;;;;;6.70;99.90;;;;;;4959435;29;19962;-79
2022/01/19 05:39:05;;;;;;;;;;;6.90;99.90;;;;;;4942006;29;19914;-79
2022/01/19 05:41:31;;;;;;;;;;;6.90;99.90;;;;;;4959255;29;19910;-79
2022/01/19 05:43:57;;;;;;;;;;;7.00;99.90;;;;;;4959458;29;19910;-79
2022/01/19 05:46:22;;;;;;;;;;;7.10;99.90;;;;;;4959262;29;19921;-78
2022/01/19 05:48:48;;;;;;;;;;;7.00;99.90;;;;;;4959084;29;19910;-79
2022/01/19 05:51:13;;;;;;;;;;;6.90;99.90;;;;;;4959144;29;19962;-79
2022/01/19 05:53:39;;;;;;;;;;;7.00;99.90;;;;;;4957444;28;19957;-79
2022/01/19 05:56:05;;;;;;;;;;;7.20;99.90;;;;;;4957664;29;19993;-79
2022/01/19 05:58:31;;;;;;;;;;;6.90;99.90;;;;;;4959068;29;19926;-80
2022/01/19 06:00:56;;;;;;;;;;;6.90;99.90;;;;;;4959047;29;19915;-79
2022/01/19 06:03:22;;;;;;;;;;;6.90;99.90;;;;;;4941615;29;19915;-79
2022/01/19 06:05:47;;;;;;;;;;;7.00;99.90;;;;;;4958769;29;19965;-79
2022/01/19 06:10:48;;;;;;;;;;;6.90;99.90;;;;;;4958982;29;19910;-78
2022/01/19 06:13:14;;;;;;;;;;;7.00;99.90;;;;;;4958717;29;19914;-79
2022/01/19 06:15:40;;;;;;;;;;;7.20;99.90;;;;;;4958733;29;19910;-79
2022/01/19 06:18:06;;;;;;;;;;;7.10;99.90;;;;;;4958561;29;20324;-79
2022/01/19 06:20:31;;;;;;;;;;;7.10;99.90;;;;;;4958953;29;19911;-79
2022/01/19 06:22:57;;;;;;;;;;;7.20;99.90;;;;;;4958830;29;19915;-79
2022/01/19 06:25:22;;;;;;;;;;;7.30;99.90;;;;;;4958466;29;19915;-79
2022/01/19 06:27:48;;;;;;;;;;;7.10;99.90;;;;;;4957154;29;19945;-80
2022/01/19 06:30:14;;;;;;;;;;;6.90;99.90;;;;;;4958405;29;20404;-79
2022/01/19 06:32:40;;;;;;;;;;;7.10;99.90;;;;;;4958263;29;19910;-79
2022/01/19 06:35:06;;;;;;;;;;;7.20;99.90;;;;;;4958275;29;19911;-78
2022/01/19 06:37:32;;;;;;;;;;;7.20;99.90;;;;;;4940975;29;19981;-80
2022/01/19 06:39:57;;;;;;;;;;;7.20;99.90;;;;;;4958187;29;19910;-79
2022/01/19 06:42:23;;;;;;;;;;;7.20;99.90;;;;;;4958120;29;19910;-78
2022/01/19 06:44:49;;;;;;;;;;;7.20;99.90;;;;;;4958085;29;19910;-79
2022/01/19 06:47:14;;;;;;;;;;;6.90;99.90;;;;;;4957365;28;20286;-79
2022/01/19 06:49:40;;;;;;;;;;;6.60;99.90;;;;;;4958004;29;19958;-79
2022/01/19 06:52:06;;;;;;;;;;;6.50;99.90;;;;;;4957868;28;19994;-79
2022/01/19 06:54:31;;;;;;;;;;;6.40;99.90;;;;;;4940356;29;19922;-79
2022/01/19 06:56:57;;;;;;;;;;;6.70;99.90;;;;;;4957920;29;19953;-79
2022/01/19 06:59:23;;;;;;;;;;;6.70;99.90;;;;;;4957772;29;20319;-79
2022/01/19 07:01:48;;;;;;;;;;;6.50;99.90;;;;;;4957607;29;19918;-79
2022/01/19 07:04:16;;;;;;;;;;;6.40;99.90;;;;;;4957811;29;19921;-79
2022/01/19 07:06:41;;;;;;;;;;;6.40;99.90;;;;;;4957755;29;19911;-79
2022/01/19 07:09:07;;;;;;;;;;;6.40;99.90;;;;;;4956385;29;19917;-79
2022/01/19 07:11:35;;;;;;;;;;;6.30;99.90;;;;;;4957606;29;19917;-78
2022/01/19 07:14:01;;;;;;;;;;;6.30;99.90;;;;;;4957500;29;19914;-79
2022/01/19 07:16:27;;;;;;;;;;;6.30;99.90;;;;;;4957790;29;19917;-79
2022/01/19 07:18:52;;;;;;;;;;;6.30;99.90;;;;;;4957499;29;20291;-78
2022/01/19 07:21:18;;;;;;;;;;;6.50;99.90;;;;;;4957477;29;19919;-79
2022/01/19 07:23:43;;;;;;;;;;;6.50;99.90;;;;;;4957656;29;19910;-79
2022/01/19 07:26:09;;;;;;;;;;;6.60;99.90;;;;;;4957383;29;20368;-79
2022/01/19 07:28:34;;;;;;;;;;;6.60;99.90;;;;;;4956057;29;20359;-79
2022/01/19 07:31:00;;;;;;;;;;;6.70;99.90;;;;;;4957307;29;19915;-79
2022/01/19 07:33:26;;;;;;;;;;;6.80;99.90;;;;;;4939915;29;19915;-79
2022/01/19 07:35:51;;;;;;;;;;;6.70;99.90;;;;;;4955985;29;19911;-79
2022/01/19 07:38:18;;;;;;;;;;;6.60;99.90;;;;;;4939912;29;20391;-79
2022/01/19 07:40:43;;;;;;;;;;;6.40;99.90;;;;;;4957222;29;19966;-79
2022/01/19 07:43:09;;;;;;;;;;;6.30;99.90;;;;;;4939751;29;19910;-79
2022/01/19 07:45:34;;;;;;;;;;;6.50;99.90;;;;;;4957036;29;20379;-79
2022/01/19 07:48:00;;;;;;;;;;;6.40;99.90;;;;;;4957407;29;20359;-79
2022/01/19 07:50:26;;;;;;;;;;;6.60;99.90;;;;;;4957090;29;19911;-79
2022/01/19 07:52:51;;;;;;;;;;;6.70;99.90;;;;;;4956740;28;20378;-79
2022/01/19 07:55:17;;;;;;;;;;;6.70;99.90;;;;;;4965446;28;20371;-79
2022/01/19 07:57:47;;;;;;;;;;;6.60;99.90;;;;;;4955515;28;19910;-79
2022/01/19 08:00:14;;;;;;;;;;;6.60;99.90;;;;;;4955260;29;19910;-79
2022/01/19 08:02:40;;;;;;;;;;;6.60;99.90;;;;;;4956705;29;19910;-79
2022/01/19 08:05:07;;;;;;;;;;;6.40;99.90;;;;;;4955389;29;19910;-79
2022/01/19 08:07:33;;;;;;;;;;;6.40;99.90;;;;;;4956629;29;19953;-79
2022/01/19 08:09:59;;;;;;;;;;;6.40;99.90;;;;;;4956558;29;20430;-79
2022/01/19 08:12:25;;;;;;;;;;;6.40;99.90;;;;;;4956508;29;19915;-79
2022/01/19 08:14:51;;;;;;;;;;;6.50;99.90;;;;;;4956399;29;20331;-78
2022/01/19 08:17:16;;;;;;;;;;;6.50;99.90;;;;;;4956708;29;19911;-79
2022/01/19 08:19:42;;;;;;;;;;;6.50;99.90;;;;;;4956416;29;19914;-79
2022/01/19 08:22:08;;;;;;;;;;;6.50;99.90;;;;;;4956235;29;19910;-79
2022/01/19 08:24:33;;;;;;;;;;;6.50;99.90;;;;;;4955030;29;19911;-78
2022/01/19 08:26:59;;;;;;;;;;;6.60;99.90;;;;;;4956258;29;19961;-79
2022/01/19 08:29:25;;;;;;;;;;;6.60;99.90;;;;;;4954927;29;19922;-79
2022/01/19 08:31:50;;;;;;;;;;;6.70;99.90;;;;;;4956132;29;19914;-79
2022/01/19 08:34:17;;;;;;;;;;;6.70;99.90;;;;;;4956358;29;19914;-79
2022/01/19 08:36:44;;;;;;;;;;;6.90;99.90;;;;;;4956101;29;19917;-79
2022/01/19 08:39:09;;;;;;;;;;;7.00;99.90;;;;;;4956112;29;20024;-79
2022/01/19 08:41:35;;;;;;;;;;;7.10;99.90;;;;;;4954777;29;19910;-79
2022/01/19 08:44:01;;;;;;;;;;;7.20;99.90;;;;;;4955954;29;19918;-78
2022/01/19 08:46:27;;;;;;;;;;;7.20;99.90;;;;;;4956395;29;19911;-79
2022/01/19 08:48:52;;;;;;;;;;;7.40;99.90;;;;;;4955916;29;20005;-80
2022/01/19 08:51:18;;;;;;;;;;;7.40;99.90;;;;;;4955880;29;19911;-78
2022/01/19 08:53:43;;;;;;;;;;;7.60;99.90;;;;;;4955769;28;19914;-79
2022/01/19 08:56:09;;;;;;;;;;;7.70;99.90;;;;;;4956084;29;19910;-79
2022/01/19 08:58:34;;;;;;;;;;;7.80;99.90;;;;;;4955744;29;19914;-78
2022/01/19 09:01:00;;;;;;;;;;;7.70;99.90;;;;;;4955776;29;20372;-79
2022/01/19 09:03:26;;;;;;;;;;;7.60;99.90;;;;;;4955711;29;20005;-78
2022/01/19 09:05:51;;;;;;;;;;;7.50;99.90;;;;;;4955791;29;19918;-79
2022/01/19 09:08:17;;;;;;;;;;;7.50;99.90;;;;;;4955694;29;19917;-78
2022/01/19 09:10:42;;;;;;;;;;;7.50;99.90;;;;;;4955247;28;19911;-79
2022/01/19 09:13:09;;;;;;;;;;;7.50;99.90;;;;;;4955519;29;19958;-79
2022/01/19 09:15:35;;;;;;;;;;;7.60;99.90;;;;;;4955646;29;19922;-79
2022/01/19 09:18:01;;;;;;;;;;;7.50;99.90;;;;;;4955502;29;19918;-78
2022/01/19 09:20:27;;;;;;;;;;;7.90;99.90;;;;;;4955565;29;19918;-80
2022/01/19 09:22:52;;;;;;;;;;;7.90;99.90;;;;;;4955518;29;19911;-79
2022/01/19 09:25:18;;;;;;;;;;;8.10;99.90;;;;;;4955884;29;19910;-79
2022/01/19 09:27:44;;;;;;;;;;;8.20;99.90;;;;;;4955548;29;19925;-79
2022/01/19 09:30:16;;;;;;;;;;;8.00;99.90;;;;;;4955491;29;19911;-79
2022/01/19 09:32:44;;;;;;;;;;;8.00;99.90;;;;;;4955484;29;19911;-79
2022/01/19 09:35:10;;;;;;;;;;;7.90;99.90;;;;;;4955401;29;19954;-79
2022/01/19 09:37:37;;;;;;;;;;;7.90;99.90;;;;;;4954103;29;19981;-79
2022/01/19 09:40:04;;;;;;;;;;;8.00;99.90;;;;;;4955328;29;20260;-79
2022/01/19 09:42:29;;;;;;;;;;;7.80;99.90;;;;;;4955498;29;20324;-79
2022/01/19 09:44:55;;;;;;;;;;;8.00;99.90;;;;;;4955319;29;19955;-79
2022/01/19 09:47:21;;;;;;;;;;;7.90;99.90;;;;;;4955533;29;19954;-79
2022/01/19 09:49:46;;;;;;;;;;;8.00;99.90;;;;;;4953962;29;20291;-79
2022/01/19 09:52:12;;;;;;;;;;;8.00;99.90;;;;;;4955183;28;19910;-78
2022/01/19 09:54:38;;;;;;;;;;;8.10;99.90;;;;;;4955113;29;19922;-78
2022/01/19 09:57:03;;;;;;;;;;;8.10;99.90;;;;;;4955542;29;19981;-79
2022/01/19 09:59:29;;;;;;;;;;;8.50;99.90;;;;;;4955217;29;20393;-79
2022/01/19 10:02:01;;;;;;;;;;;8.30;99.90;;;;;;4955161;29;19914;-79
2022/01/19 10:04:30;;;;;;;;;;;8.40;99.90;;;;;;4955151;29;19911;-79
2022/01/19 10:07:12;;;;;;;;;;;8.40;99.90;;;;;;4955075;29;19910;-79
2022/01/19 10:09:50;;;;;;;;;;;8.40;99.90;;;;;;4955211;29;19917;-78
2022/01/19 10:18:07;;;;;;;;;;;8.80;99.90;;;;;;4954824;29;19960;-80
2022/01/19 10:20:33;;;;;;;;;;;9.50;99.90;;;;;;4937732;28;20390;-79
2022/01/19 10:22:59;;;;;;;;;;;10.70;99.90;;;;;;4956616;29;19910;-79
2022/01/19 10:25:24;;;;;;;;;;;12.30;99.90;;;;;;4957206;29;19915;-80
2022/01/19 10:27:50;;;;;;;;;;;12.60;99.90;;;;;;4958810;29;19917;-80
2022/01/19 10:30:20;;;;;;;;;;;12.20;99.90;;;;;;4958431;29;19910;-79
2022/01/19 10:32:50;;;;;;;;;;;11.90;99.90;;;;;;4958247;29;19910;-79
2022/01/19 10:35:15;;;;;;;;;;;11.10;99.90;;;;;;4958276;29;20001;-79
2022/01/19 10:37:41;;;;;;;;;;;11.10;99.90;;;;;;4958249;29;19949;-79
2022/01/19 10:40:12;;;;;;;;;;;10.90;99.90;;;;;;4958547;29;19965;-79
2022/01/19 10:42:37;;;;;;;;;;;11.30;99.90;;;;;;4958224;29;20363;-79
2022/01/19 10:45:07;;;;;;;;;;;11.20;99.90;;;;;;4958120;29;19934;-79
2022/01/19 10:47:50;;;;;;;;;;;11.80;99.90;;;;;;4958228;29;19954;-79
2022/01/19 10:50:21;;;;;;;;;;;12.00;99.90;;;;;;4958197;29;19917;-79
2022/01/19 10:52:47;;;;;;;;;;;12.00;99.90;;;;;;4957860;28;19917;-79
2022/01/19 10:55:25;;;;;;;;;;;11.90;99.90;;;;;;4957814;29;19922;-79
2022/01/19 10:57:51;;;;;;;;;;;11.10;99.90;;;;;;4958061;29;19916;-79
2022/01/19 11:00:20;;;;;;;;;;;10.30;99.90;;;;;;4957090;29;21231;-79
2022/01/19 11:02:47;;;;;;;;;;;10.70;99.90;;;;;;4956528;29;19911;-79
2022/01/19 11:05:13;;;;;;;;;;;10.80;99.90;;;;;;4957757;29;19918;-78
2022/01/19 11:07:39;;;;;;;;;;;10.40;99.90;;;;;;4957897;29;19936;-79
2022/01/19 11:10:10;;;;;;;;;;;12.70;99.90;;;;;;4957768;29;19914;-80
2022/01/19 11:12:47;;;;;;;;;;;16.40;99.40;;;;;;4957674;29;19914;-79
2022/01/19 11:15:14;;;;;;;;;;;18.90;92.90;;;;;;4957983;29;19914;-80
2022/01/19 11:17:40;;;;;;;;;;;20.70;82.70;;;;;;4957553;29;20005;-80
2022/01/19 11:20:07;;;;;;;;;;;21.20;77.00;;;;;;4956206;29;19964;-80
2022/01/19 11:22:38;;;;;;;;;;;19.30;75.90;;;;;;4957483;29;20393;-80
2022/01/19 11:25:12;;;;;;;;;;;17.10;84.90;;;;;;4957870;29;19974;-80
2022/01/19 11:27:42;;;;;;;;;;;17.70;86.40;;;;;;4957388;29;20362;-79
2022/01/19 11:30:10;;;;;;;;;;;15.70;89.50;;;;;;4957274;29;19911;-80
2022/01/19 11:32:36;;;;;;;;;;;19.40;79.90;;;;;;4939769;29;19910;-80
2022/01/19 11:35:03;;;;;;;;;;;20.90;75.20;;;;;;4955944;29;19922;-80
2022/01/19 11:37:31;;;;;;;;;;;23.70;68.20;;;;;;4957297;29;20363;-80
2022/01/19 11:40:04;;;;;;;;;;;24.00;61.50;;;;;;4939926;29;19989;-80
2022/01/19 11:42:29;;;;;;;;;;;23.60;59.90;;;;;;4957195;29;20384;-80
2022/01/19 11:44:55;;;;;;;;;;;20.90;63.60;;;;;;4957078;29;19957;-80
2022/01/19 11:47:31;;;;;;;;;;;19.30;67.50;;;;;;4939834;29;19997;-79
2022/01/19 11:50:07;;;;;;;;;;;18.00;71.00;;;;;;4955440;29;20306;-79
2022/01/19 11:52:39;;;;;;;;;;;16.70;75.50;;;;;;4956980;28;20295;-80
2022/01/19 11:55:13;;;;;;;;;;;15.20;82.40;;;;;;4956655;29;20389;-80
2022/01/19 11:57:40;;;;;;;;;;;14.80;86.30;;;;;;4939589;29;20005;-80
2022/01/19 12:00:06;;;;;;;;;;;14.20;91.00;;;;;;4956665;29;19910;-80
2022/01/19 12:02:36;;;;;;;;;;;14.30;92.60;;;;;;4956560;29;19918;-79
2022/01/19 12:05:04;;;;;;;;;;;13.60;93.60;;;;;;4939480;29;19914;-79
2022/01/19 12:07:44;;;;;;;;;;;13.30;95.30;;;;;;4956680;29;19914;-80
2022/01/19 12:10:15;;;;;;;;;;;12.70;97.40;;;;;;4956525;29;19910;-79
2022/01/19 12:12:55;;;;;;;;;;;12.70;97.50;;;;;;4956575;29;19965;-79
2022/01/19 12:15:39;;;;;;;;;;;12.30;99.00;;;;;;4956680;29;19921;-79
2022/01/19 12:18:10;;;;;;;;;;;12.00;99.20;;;;;;4956534;29;19914;-79
2022/01/19 12:20:48;;;;;;;;;;;12.00;99.90;;;;;;4954861;29;19922;-79
2022/01/19 12:23:27;;;;;;;;;;;11.60;99.90;;;;;;4955119;29;19910;-79
2022/01/19 12:25:54;;;;;;;;;;;11.40;99.90;;;;;;4956415;29;19946;-79
2022/01/19 12:28:38;;;;;;;;;;;11.40;99.90;;;;;;4956259;29;19917;-79
2022/01/19 12:31:39;;;;;;;;;;;11.40;99.90;;;;;;4938940;29;19911;-79
2022/01/19 12:34:04;;;;;;;;;;;11.40;99.90;;;;;;4897118;29;20352;-79
2022/01/19 12:36:40;;;;;;;;;;;11.20;99.90;;;;;;4942720;29;19917;-79
2022/01/19 12:39:35;;;;;;;;;;;10.90;99.90;;;;;;4956052;29;19998;-78
2022/01/19 12:42:12;;;;;;;;;;;10.90;99.90;;;;;;4942373;29;19911;-79
2022/01/19 12:44:46;;;;;;;;;;;11.00;99.90;;;;;;4937915;29;19945;-79
2022/01/19 12:47:30;;;;;;;;;;;10.60;99.90;;;;;;4955943;29;19926;-79
2022/01/19 12:49:56;;;;;;;;;;;10.70;99.90;;;;;;4955904;29;20032;-79
2022/01/19 12:52:23;;;;;;;;;;;10.40;99.90;;;;;;4955853;28;19914;-79
2022/01/19 12:54:49;;;;;;;;;;;10.40;99.90;;;;;;4955560;29;19923;-79
2022/01/19 12:57:16;;;;;;;;;;;10.40;99.90;;;;;;4938576;29;19973;-79
2022/01/19 12:59:43;;;;;;;;;;;10.20;99.90;;;;;;4954497;29;19911;-79
2022/01/19 13:02:09;;;;;;;;;;;10.30;99.90;;;;;;4955705;29;19911;-79
2022/01/19 13:04:37;;;;;;;;;;;10.30;99.90;;;;;;4955682;29;20013;-78
2022/01/19 13:07:15;;;;;;;;;;;10.20;99.90;;;;;;4955652;29;20395;-79
2022/01/19 13:10:04;;;;;;;;;;;10.20;99.90;;;;;;4955660;29;19911;-78
2022/01/19 13:12:42;;;;;;;;;;;10.30;99.90;;;;;;4954353;29;19961;-79
2022/01/19 13:15:08;;;;;;;;;;;10.00;99.90;;;;;;4955857;29;20425;-79
2022/01/19 13:17:42;;;;;;;;;;;10.10;99.90;;;;;;4955644;29;19910;-79
2022/01/19 13:20:11;;;;;;;;;;;10.20;99.90;;;;;;4955701;29;20009;-78
2022/01/19 13:22:46;;;;;;;;;;;10.20;99.90;;;;;;4955509;29;19911;-79
2022/01/19 13:25:19;;;;;;;;;;;10.10;99.90;;;;;;4955761;29;19910;-78
2022/01/19 13:27:45;;;;;;;;;;;10.10;99.90;;;;;;4955607;29;19914;-79
2022/01/19 13:30:13;;;;;;;;;;;10.10;99.90;;;;;;4955432;29;19933;-79
2022/01/19 13:32:39;;;;;;;;;;;9.90;99.90;;;;;;4955434;29;20367;-78
2022/01/19 13:35:07;;;;;;;;;;;9.90;99.90;;;;;;4955421;29;19925;-79
2022/01/19 13:37:42;;;;;;;;;;;10.00;99.90;;;;;;4955309;29;19997;-79
2022/01/19 13:40:09;;;;;;;;;;;9.90;99.90;;;;;;4955728;29;19946;-79
2022/01/19 13:42:39;;;;;;;;;;;9.80;99.90;;;;;;4955457;29;20004;-79
2022/01/19 13:45:10;;;;;;;;;;;10.10;99.90;;;;;;4955310;29;20009;-79
2022/01/19 13:48:04;;;;;;;;;;;10.00;99.90;;;;;;4955311;29;19911;-79
2022/01/19 13:50:30;;;;;;;;;;;10.10;99.90;;;;;;4955417;29;19911;-78
2022/01/19 13:52:55;;;;;;;;;;;10.10;99.90;;;;;;4955029;28;19910;-79
2022/01/19 13:55:22;;;;;;;;;;;10.30;99.90;;;;;;4955356;28;19922;-79
2022/01/19 13:57:48;;;;;;;;;;;10.40;99.90;;;;;;4958922;29;19921;-79
2022/01/19 14:00:16;;;;;;;;;;;10.40;99.90;;;;;;4958929;29;19911;-79
2022/01/19 14:02:52;;;;;;;;;;;10.10;99.90;;;;;;4958906;29;19977;-78
2022/01/19 14:05:17;;;;;;;;;;;10.30;99.90;;;;;;4958901;29;19910;-79
2022/01/19 14:07:46;;;;;;;;;;;10.20;99.90;;;;;;4957528;29;19961;-79
2022/01/19 14:10:12;;;;;;;;;;;10.20;99.90;;;;;;4959155;29;20287;-79
2022/01/19 14:12:38;;;;;;;;;;;10.00;99.90;;;;;;4958983;29;20027;-79
2022/01/19 14:15:06;;;;;;;;;;;9.90;99.90;;;;;;4958598;29;19914;-79
2022/01/19 14:17:33;;;;;;;;;;;9.90;99.90;;;;;;4941396;29;19910;-79
2022/01/19 14:19:59;;;;;;;;;;;9.70;99.90;;;;;;4958736;29;19911;-78
2022/01/19 14:22:32;;;;;;;;;;;9.90;99.90;;;;;;4958555;29;19922;-79
2022/01/19 14:25:00;;;;;;;;;;;9.70;99.90;;;;;;4941312;29;19918;-79
2022/01/19 14:27:26;;;;;;;;;;;9.70;99.90;;;;;;4941250;29;19969;-78
2022/01/19 14:30:10;;;;;;;;;;;9.50;99.90;;;;;;4958432;29;20302;-79
2022/01/19 14:32:43;;;;;;;;;;;9.40;99.90;;;;;;4958561;29;20380;-79
2022/01/19 14:35:27;;;;;;;;;;;9.60;99.90;;;;;;4958273;29;19921;-79
2022/01/19 14:38:07;;;;;;;;;;;9.70;99.90;;;;;;4958255;29;19911;-78
2022/01/19 14:40:38;;;;;;;;;;;9.50;99.90;;;;;;4958443;29;20240;-79
2022/01/19 14:43:09;;;;;;;;;;;9.40;99.90;;;;;;4958419;29;19914;-79
2022/01/19 14:45:37;;;;;;;;;;;9.40;99.90;;;;;;4958304;29;19921;-79
2022/01/19 14:48:13;;;;;;;;;;;9.40;99.90;;;;;;4956895;29;19957;-79
2022/01/19 14:50:38;;;;;;;;;;;9.30;99.90;;;;;;4958020;29;20339;-78
2022/01/19 14:53:04;;;;;;;;;;;9.10;99.90;;;;;;4958183;28;19993;-79
2022/01/19 14:55:32;;;;;;;;;;;9.00;99.90;;;;;;4957823;29;20366;-78
2022/01/19 14:57:58;;;;;;;;;;;8.80;99.90;;;;;;4957997;29;20418;-79
2022/01/19 15:00:26;;;;;;;;;;;8.70;99.90;;;;;;4957896;29;19910;-80
2022/01/19 15:02:58;;;;;;;;;;;8.70;99.90;;;;;;4958133;29;19918;-79
2022/01/19 15:05:25;;;;;;;;;;;8.70;99.90;;;;;;4957888;29;20367;-79
2022/01/19 15:07:52;;;;;;;;;;;8.70;99.90;;;;;;4957144;28;20256;-79
2022/01/19 15:10:18;;;;;;;;;;;8.70;99.90;;;;;;4957720;29;20002;-79
2022/01/19 15:12:45;;;;;;;;;;;8.60;99.90;;;;;;4957836;29;19911;-78
2022/01/19 15:15:10;;;;;;;;;;;8.60;99.90;;;;;;4957504;29;20108;-78
2022/01/19 15:17:37;;;;;;;;;;;8.50;99.90;;;;;;4957625;29;19918;-78
2022/01/19 15:20:04;;;;;;;;;;;8.50;99.90;;;;;;4957489;29;19911;-79
2022/01/19 15:22:30;;;;;;;;;;;8.40;99.90;;;;;;4957456;29;19910;-79
2022/01/19 15:24:56;;;;;;;;;;;8.40;99.90;;;;;;4956177;29;19911;-79
2022/01/19 15:27:21;;;;;;;;;;;8.20;99.90;;;;;;4934459;28;19923;-78
2022/01/19 15:29:48;;;;;;;;;;;8.30;99.90;;;;;;4956713;29;20294;-79
2022/01/19 15:32:15;;;;;;;;;;;8.40;99.90;;;;;;4956737;29;20290;-79
2022/01/19 15:34:40;;;;;;;;;;;8.30;99.90;;;;;;4956596;29;19914;-79
2022/01/19 15:37:06;;;;;;;;;;;8.20;99.90;;;;;;4956339;28;19962;-78
2022/01/19 15:39:34;;;;;;;;;;;8.30;99.90;;;;;;4956662;29;19911;-79
2022/01/19 15:41:59;;;;;;;;;;;8.20;99.90;;;;;;4956749;29;19918;-78
2022/01/19 15:44:26;;;;;;;;;;;8.10;99.90;;;;;;4956846;29;19914;-79
2022/01/19 15:46:52;;;;;;;;;;;8.10;99.90;;;;;;4956207;28;19954;-78
2022/01/19 15:49:18;;;;;;;;;;;8.10;99.90;;;;;;4956426;29;20396;-78
2022/01/19 15:51:43;;;;;;;;;;;8.30;99.90;;;;;;4956655;29;19911;-79
2022/01/19 15:54:10;;;;;;;;;;;8.20;99.90;;;;;;4939084;29;19930;-79
2022/01/19 15:56:36;;;;;;;;;;;8.20;99.90;;;;;;4964911;28;20381;-79